Time;durP1;ratioP1;P1;durP2;ratioP2;P2;SDS_P1;SDS_P2;PMS_P1;PMS_P2;Temp;Humidity;BMP_temperature;BMP_pressure;BME280_temperature;BME280_humidity;BME280_pressure;Samples;Min_cycle;Max_cycle;Signal;HPM_P1;HPM_P2
2022/09/22 00:01:05;;;;;;;2.13;1.00;;;20.30;55.60;;;;;;5030524;28;20461;-63
2022/09/22 00:03:32;;;;;;;1.88;1.00;;;20.30;55.60;;;;;;5029976;28;20481;-64
2022/09/22 00:06:03;;;;;;;1.00;0.70;;;20.30;55.50;;;;;;5030735;28;20026;-63
2022/09/22 00:08:31;;;;;;;1.13;0.80;;;20.30;55.50;;;;;;5031279;28;20036;-63
2022/09/22 00:11:04;;;;;;;1.77;0.80;;;20.30;55.60;;;;;;5030286;28;20350;-64
2022/09/22 00:13:32;;;;;;;1.52;0.88;;;20.30;55.50;;;;;;5030843;28;20036;-63
2022/09/22 00:15:59;;;;;;;1.52;0.80;;;20.30;55.60;;;;;;5029830;28;20132;-64
2022/09/22 00:18:25;;;;;;;0.68;0.68;;;20.30;55.50;;;;;;5030889;28;20539;-64
2022/09/22 00:20:50;;;;;;;1.77;0.90;;;20.30;55.60;;;;;;5030990;28;20025;-65
2022/09/22 00:23:16;;;;;;;1.30;0.73;;;20.30;55.50;;;;;;5030786;28;20026;-65
2022/09/22 00:25:41;;;;;;;1.20;0.77;;;20.30;55.50;;;;;;5030814;28;20088;-63
2022/09/22 00:28:07;;;;;;;1.10;0.82;;;20.30;55.50;;;;;;5030843;28;20043;-65
2022/09/22 00:30:32;;;;;;;1.15;0.80;;;20.20;55.50;;;;;;5030261;28;20124;-65
2022/09/22 00:32:58;;;;;;;1.55;0.90;;;20.20;55.50;;;;;;5030750;28;20493;-65
2022/09/22 00:35:24;;;;;;;1.60;0.80;;;20.30;55.50;;;;;;5030641;28;20041;-64
2022/09/22 00:37:49;;;;;;;1.30;0.70;;;20.30;55.50;;;;;;5031024;28;20029;-64
2022/09/22 00:40:16;;;;;;;1.40;0.70;;;20.30;55.50;;;;;;5030979;28;20432;-64
2022/09/22 00:42:42;;;;;;;1.40;0.90;;;20.20;55.50;;;;;;5030758;28;20453;-64
2022/09/22 00:45:10;;;;;;;1.70;0.88;;;20.20;55.50;;;;;;5030065;28;20081;-64
2022/09/22 00:47:41;;;;;;;0.85;0.68;;;20.20;55.40;;;;;;5030564;28;20036;-64
2022/09/22 00:50:06;;;;;;;1.35;0.80;;;20.20;55.50;;;;;;5013357;28;20036;-64
2022/09/22 00:52:38;;;;;;;1.02;0.80;;;20.20;55.50;;;;;;5034149;28;20033;-63
2022/09/22 00:55:16;;;;;;;1.35;0.90;;;20.20;55.50;;;;;;5034065;28;20393;-63
2022/09/22 00:57:45;;;;;;;1.27;0.80;;;20.20;55.50;;;;;;5034256;28;20446;-64
2022/09/22 01:00:13;;;;;;;1.00;0.70;;;20.20;55.50;;;;;;5033674;28;20029;-63
2022/09/22 01:02:39;;;;;;;1.02;0.65;;;20.20;55.40;;;;;;5034194;28;20064;-64
2022/09/22 01:05:06;;;;;;;1.13;0.70;;;20.20;55.50;;;;;;5034061;28;20025;-64
2022/09/22 01:07:32;;;;;;;0.70;0.70;;;20.20;55.50;;;;;;5033938;28;20029;-64
2022/09/22 01:09:58;;;;;;;1.27;0.80;;;20.20;55.50;;;;;;5033911;28;20021;-64
2022/09/22 01:12:26;;;;;;;0.93;0.60;;;20.20;55.50;;;;;;5033910;28;20060;-64
2022/09/22 01:15:09;;;;;;;0.63;0.60;;;20.20;55.50;;;;;;5033757;28;20401;-64
2022/09/22 01:17:55;;;;;;;1.17;0.77;;;20.20;55.40;;;;;;5033672;28;20326;-64
2022/09/22 01:21:01;;;;;;;1.15;0.90;;;20.20;55.50;;;;;;5032809;28;20033;-65
2022/09/22 01:23:55;;;;;;;0.68;0.60;;;20.10;55.40;;;;;;5022685;28;20104;-64
2022/09/22 01:26:39;;;;;;;1.23;0.70;;;20.20;55.40;;;;;;5032417;28;20029;-64
2022/09/22 01:29:10;;;;;;;1.20;0.80;;;20.20;55.50;;;;;;5030962;28;20079;-64
2022/09/22 01:31:49;;;;;;;1.92;0.90;;;20.20;55.40;;;;;;5033151;28;20047;-64
2022/09/22 01:34:43;;;;;;;1.33;0.80;;;20.20;55.50;;;;;;5033200;28;20037;-65
2022/09/22 01:37:31;;;;;;;1.00;0.80;;;20.10;55.40;;;;;;5033111;28;20048;-64
2022/09/22 01:40:05;;;;;;;1.33;0.80;;;20.10;55.40;;;;;;5032950;28;20115;-64
2022/09/22 01:42:43;;;;;;;1.13;0.77;;;20.10;55.40;;;;;;5033164;28;20523;-63
2022/09/22 01:45:12;;;;;;;1.58;0.80;;;20.10;55.40;;;;;;5033347;28;20504;-63
2022/09/22 01:47:49;;;;;;;0.90;0.73;;;20.10;55.40;;;;;;5033114;28;20112;-63
2022/09/22 01:50:33;;;;;;;0.85;0.70;;;20.10;55.40;;;;;;5032701;28;20152;-64
2022/09/22 01:53:04;;;;;;;1.55;0.80;;;20.10;55.40;;;;;;5033049;28;20075;-64
2022/09/22 01:55:34;;;;;;;1.05;0.80;;;20.10;55.40;;;;;;5032679;28;20079;-63
2022/09/22 01:58:11;;;;;;;0.63;0.60;;;20.10;55.40;;;;;;5033042;28;20099;-65
2022/09/22 02:00:41;;;;;;;0.82;0.70;;;20.10;55.40;;;;;;5031950;28;20032;-64
2022/09/22 02:03:33;;;;;;;1.30;0.70;;;20.10;55.40;;;;;;5015295;28;20433;-64
2022/09/22 02:06:07;;;;;;;1.10;0.70;;;20.10;55.40;;;;;;5030642;28;20025;-64
2022/09/22 02:08:48;;;;;;;1.40;0.70;;;20.10;55.40;;;;;;5032824;28;20030;-64
2022/09/22 02:11:15;;;;;;;1.17;0.70;;;20.10;55.40;;;;;;5031574;28;20029;-63
2022/09/22 02:13:42;;;;;;;1.45;0.77;;;20.10;55.40;;;;;;5032718;28;20465;-64
2022/09/22 02:16:10;;;;;;;0.60;0.60;;;20.10;55.90;;;;;;5032508;28;20552;-63
2022/09/22 02:19:17;;;;;;;0.55;0.55;;;20.00;55.40;;;;;;5031531;28;20087;-64
2022/09/22 02:21:45;;;;;;;1.00;0.70;;;20.10;55.40;;;;;;5024231;28;20034;-64
2022/09/22 02:24:46;;;;;;;1.48;0.80;;;20.00;55.30;;;;;;5032556;28;20541;-64
2022/09/22 02:27:22;;;;;;;1.08;0.70;;;20.00;55.30;;;;;;4923401;29;20031;-63
2022/09/22 02:30:00;;;;;;;0.95;0.70;;;20.00;55.30;;;;;;5017985;28;20041;-65
2022/09/22 02:32:26;;;;;;;1.23;0.70;;;20.00;55.30;;;;;;5030734;28;20033;-64
2022/09/22 02:34:54;;;;;;;1.17;0.70;;;20.00;55.30;;;;;;5032278;28;20037;-64
2022/09/22 02:37:23;;;;;;;0.73;0.60;;;20.00;55.30;;;;;;5032642;28;20079;-64
2022/09/22 02:39:57;;;;;;;1.05;0.70;;;20.00;55.30;;;;;;5032555;28;20420;-64
2022/09/22 02:42:37;;;;;;;0.75;0.60;;;20.00;55.30;;;;;;5030610;28;20109;-63
2022/09/22 02:45:36;;;;;;;1.05;0.60;;;20.00;55.30;;;;;;5012812;28;20108;-64
2022/09/22 02:48:08;;;;;;;0.60;0.60;;;20.00;55.30;;;;;;5009496;28;20077;-64
2022/09/22 02:50:35;;;;;;;1.33;0.70;;;20.00;55.30;;;;;;5031055;28;20033;-63
2022/09/22 02:53:04;;;;;;;0.98;0.65;;;20.00;55.40;;;;;;5031610;28;20029;-65
2022/09/22 02:55:30;;;;;;;1.38;0.80;;;20.00;55.30;;;;;;5031749;28;20099;-64
2022/09/22 02:57:55;;;;;;;0.60;0.60;;;20.00;55.80;;;;;;5014050;28;20029;-64
2022/09/22 03:00:21;;;;;;;0.70;0.52;;;20.00;55.30;;;;;;5031598;28;20026;-63
2022/09/22 03:02:47;;;;;;;1.02;0.63;;;20.00;55.30;;;;;;5031694;28;20517;-63
2022/09/22 03:05:12;;;;;;;0.80;0.70;;;20.00;55.30;;;;;;5031770;28;20026;-66
2022/09/22 03:07:38;;;;;;;1.00;0.65;;;19.90;55.30;;;;;;5031718;28;20036;-64
2022/09/22 03:10:04;;;;;;;0.85;0.70;;;20.00;55.40;;;;;;5031038;28;20041;-64
2022/09/22 03:12:30;;;;;;;1.08;0.60;;;19.90;55.30;;;;;;5031116;28;20029;-64
2022/09/22 03:14:56;;;;;;;0.85;0.60;;;20.00;55.30;;;;;;5031375;28;20068;-63
2022/09/22 03:17:21;;;;;;;0.90;0.60;;;19.90;55.30;;;;;;5031594;28;20469;-63
2022/09/22 03:19:47;;;;;;;0.98;0.80;;;19.90;55.30;;;;;;5031636;28;20053;-63
2022/09/22 03:22:12;;;;;;;1.13;0.70;;;19.90;55.30;;;;;;5031575;28;20029;-63
2022/09/22 03:24:38;;;;;;;0.80;0.50;;;19.90;55.30;;;;;;5031603;28;20389;-64
2022/09/22 03:27:04;;;;;;;1.00;0.55;;;19.90;55.30;;;;;;5031443;28;20132;-63
2022/09/22 03:29:29;;;;;;;0.57;0.57;;;19.90;55.20;;;;;;5030694;28;20044;-64
2022/09/22 03:31:55;;;;;;;0.80;0.70;;;19.90;55.20;;;;;;5030980;28;20037;-65
2022/09/22 03:34:20;;;;;;;0.82;0.70;;;19.90;55.30;;;;;;5031347;28;20389;-63
2022/09/22 03:36:46;;;;;;;0.63;0.50;;;19.90;55.30;;;;;;5031292;28;20075;-63
2022/09/22 03:39:11;;;;;;;0.77;0.60;;;19.90;55.30;;;;;;5031374;28;20022;-64
2022/09/22 03:41:37;;;;;;;0.80;0.70;;;19.90;55.30;;;;;;5031355;28;20374;-63
2022/09/22 03:44:04;;;;;;;0.90;0.60;;;19.90;55.30;;;;;;5031205;28;20078;-64
2022/09/22 03:46:30;;;;;;;0.65;0.60;;;19.90;55.30;;;;;;5029626;28;20106;-64
2022/09/22 03:48:56;;;;;;;0.77;0.60;;;19.90;55.30;;;;;;5031221;28;20493;-64
2022/09/22 03:51:22;;;;;;;0.98;0.75;;;19.90;55.30;;;;;;5031401;28;20067;-64
2022/09/22 03:53:47;;;;;;;0.93;0.70;;;19.90;55.80;;;;;;5030580;28;20108;-65
2022/09/22 03:56:14;;;;;;;1.35;0.70;;;19.90;55.80;;;;;;5030959;28;20025;-64
2022/09/22 03:58:41;;;;;;;0.68;0.60;;;19.90;55.30;;;;;;5030636;28;20032;-64
2022/09/22 04:01:08;;;;;;;1.00;0.60;;;19.90;55.30;;;;;;5030668;28;20041;-64
2022/09/22 04:03:34;;;;;;;0.60;0.60;;;19.90;55.30;;;;;;5029466;28;20029;-64
2022/09/22 04:06:00;;;;;;;0.82;0.70;;;19.90;55.30;;;;;;5030856;28;20048;-63
2022/09/22 04:08:26;;;;;;;1.05;0.60;;;19.90;55.30;;;;;;5031057;28;20029;-63
2022/09/22 04:10:52;;;;;;;0.95;0.75;;;19.90;55.30;;;;;;5030908;28;20136;-64
2022/09/22 04:13:17;;;;;;;1.15;0.60;;;19.90;55.30;;;;;;5030807;28;20140;-64
2022/09/22 04:15:45;;;;;;;0.73;0.60;;;19.80;55.20;;;;;;5030626;28;20075;-63
2022/09/22 04:18:12;;;;;;;0.80;0.70;;;19.80;55.20;;;;;;5030674;28;20032;-63
2022/09/22 04:20:44;;;;;;;0.75;0.60;;;19.80;55.20;;;;;;5030772;28;20560;-64
2022/09/22 04:23:11;;;;;;;0.75;0.60;;;19.80;55.20;;;;;;5029875;28;20512;-64
2022/09/22 04:25:37;;;;;;;0.93;0.70;;;19.80;55.20;;;;;;5032901;28;20123;-63
2022/09/22 04:28:04;;;;;;;0.82;0.57;;;19.80;55.20;;;;;;5034718;28;20120;-63
2022/09/22 04:30:30;;;;;;;0.60;0.60;;;19.80;55.20;;;;;;5034228;28;20493;-64
2022/09/22 04:32:56;;;;;;;1.02;0.70;;;19.80;55.20;;;;;;5034671;28;20124;-64
2022/09/22 04:35:21;;;;;;;0.88;0.60;;;19.80;55.20;;;;;;5034546;28;20048;-63
2022/09/22 04:37:47;;;;;;;0.80;0.70;;;19.80;55.20;;;;;;5034518;28;20061;-63
2022/09/22 04:40:13;;;;;;;0.82;0.60;;;19.80;55.20;;;;;;5034543;28;20025;-63
2022/09/22 04:42:38;;;;;;;0.40;0.40;;;19.80;55.20;;;;;;5034194;28;20112;-63
2022/09/22 04:45:05;;;;;;;1.13;0.63;;;19.80;55.20;;;;;;5034285;28;20036;-63
2022/09/22 04:47:32;;;;;;;0.60;0.60;;;19.80;55.30;;;;;;5034328;28;20029;-64
2022/09/22 04:49:58;;;;;;;0.90;0.60;;;19.80;55.40;;;;;;5034358;28;20030;-63
2022/09/22 04:52:24;;;;;;;1.00;0.60;;;19.80;55.30;;;;;;5034385;28;20726;-63
2022/09/22 04:54:50;;;;;;;0.95;0.55;;;19.80;55.30;;;;;;5034458;28;20322;-63
2022/09/22 04:57:16;;;;;;;0.57;0.50;;;19.80;55.90;;;;;;5034144;28;20030;-64
2022/09/22 04:59:42;;;;;;;0.75;0.60;;;19.80;55.40;;;;;;5033124;28;20120;-63
2022/09/22 05:02:08;;;;;;;1.33;0.70;;;19.80;55.40;;;;;;5033567;28;20079;-63
2022/09/22 05:04:33;;;;;;;1.00;0.60;;;19.80;55.40;;;;;;5034031;28;20025;-64
2022/09/22 05:06:59;;;;;;;0.70;0.65;;;19.80;55.40;;;;;;5033930;28;20385;-63
2022/09/22 05:09:25;;;;;;;0.70;0.60;;;19.80;55.40;;;;;;5034026;28;20459;-64
2022/09/22 05:11:50;;;;;;;0.70;0.60;;;19.80;55.50;;;;;;5033838;28;20021;-63
2022/09/22 05:14:16;;;;;;;1.20;0.68;;;19.80;55.40;;;;;;5033690;28;20029;-63
2022/09/22 05:16:42;;;;;;;1.55;0.75;;;19.70;55.40;;;;;;5033754;28;20045;-62
2022/09/22 05:19:08;;;;;;;0.70;0.60;;;19.70;55.40;;;;;;5033853;28;20026;-64
2022/09/22 05:21:35;;;;;;;2.13;0.82;;;19.70;55.40;;;;;;5033696;28;20025;-64
2022/09/22 05:24:01;;;;;;;0.90;0.70;;;19.70;55.40;;;;;;5033595;28;20056;-63
2022/09/22 05:26:27;;;;;;;1.20;0.70;;;19.70;55.40;;;;;;5033598;28;20596;-62
2022/09/22 05:28:52;;;;;;;0.77;0.60;;;19.70;55.40;;;;;;5033598;28;20495;-64
2022/09/22 05:31:18;;;;;;;1.27;0.70;;;19.70;55.40;;;;;;5032973;28;20410;-63
2022/09/22 05:33:44;;;;;;;1.42;0.80;;;19.70;55.40;;;;;;5032949;28;20025;-64
2022/09/22 05:36:09;;;;;;;1.00;0.60;;;19.70;55.50;;;;;;5032909;28;20017;-64
2022/09/22 05:38:35;;;;;;;1.85;0.80;;;19.70;55.50;;;;;;5033299;28;20036;-64
2022/09/22 05:41:02;;;;;;;1.10;0.73;;;19.70;55.40;;;;;;5033346;28;20041;-64
2022/09/22 05:43:28;;;;;;;0.80;0.70;;;19.70;55.50;;;;;;5033307;28;20381;-64
2022/09/22 05:45:53;;;;;;;1.30;0.80;;;19.70;55.50;;;;;;5033258;28;20045;-64
2022/09/22 05:48:19;;;;;;;1.88;0.90;;;19.70;55.50;;;;;;5033043;28;20360;-64
2022/09/22 05:50:45;;;;;;;1.35;0.90;;;19.70;55.70;;;;;;5041682;28;20025;-63
2022/09/22 05:53:11;;;;;;;3.10;1.10;;;19.70;55.90;;;;;;5043918;28;20065;-64
2022/09/22 05:55:38;;;;;;;2.63;1.10;;;19.80;55.80;;;;;;5042648;28;20029;-63
2022/09/22 05:58:04;;;;;;;2.25;1.10;;;19.90;55.70;;;;;;5033043;28;20037;-64
2022/09/22 06:00:30;;;;;;;1.77;1.10;;;20.00;55.50;;;;;;5042830;28;20033;-63
2022/09/22 06:02:55;;;;;;;2.00;1.10;;;20.00;55.40;;;;;;5042441;28;20056;-63
2022/09/22 06:05:21;;;;;;;2.28;1.02;;;20.10;55.20;;;;;;5041743;28;20083;-63
2022/09/22 06:07:59;;;;;;;2.05;1.10;;;20.20;55.00;;;;;;5041376;28;20025;-63
2022/09/22 06:10:25;;;;;;;1.65;1.00;;;20.30;54.80;;;;;;5031839;28;20029;-63
2022/09/22 06:12:56;;;;;;;1.58;1.00;;;20.40;54.60;;;;;;5036816;28;20095;-63
2022/09/22 06:15:21;;;;;;;2.95;1.00;;;20.50;54.50;;;;;;5044351;28;20110;-63
2022/09/22 06:17:51;;;;;;;2.38;1.10;;;20.50;54.30;;;;;;5043395;28;20105;-63
2022/09/22 06:20:16;;;;;;;1.65;1.00;;;20.60;54.20;;;;;;5038937;28;20021;-63
2022/09/22 06:22:43;;;;;;;2.25;1.15;;;20.70;54.10;;;;;;5045006;28;20396;-64
2022/09/22 06:25:09;;;;;;;2.20;1.00;;;20.80;54.00;;;;;;5045303;28;20021;-63
2022/09/22 06:27:35;;;;;;;1.50;0.98;;;20.90;53.80;;;;;;5044528;28;20036;-63
2022/09/22 06:30:05;;;;;;;1.83;1.00;;;20.90;53.70;;;;;;5044794;28;20029;-63
2022/09/22 06:32:32;;;;;;;1.98;1.00;;;21.00;53.50;;;;;;5064485;28;20057;-63
2022/09/22 06:35:01;;;;;;;1.70;0.90;;;21.10;53.50;;;;;;5061317;28;20025;-64
2022/09/22 06:37:27;;;;;;;1.92;1.10;;;21.20;53.40;;;;;;5052477;28;20502;-64
2022/09/22 06:39:53;;;;;;;1.95;0.90;;;21.20;53.20;;;;;;5059237;28;20018;-64
2022/09/22 06:42:19;;;;;;;2.10;1.00;;;21.30;53.10;;;;;;5065102;28;20052;-64
2022/09/22 06:44:44;;;;;;;2.50;1.23;;;21.30;53.00;;;;;;5062004;28;20481;-64
2022/09/22 06:47:11;;;;;;;3.15;1.00;;;21.30;52.90;;;;;;5059459;28;20028;-63
2022/09/22 06:49:37;;;;;;;2.25;0.90;;;21.30;52.80;;;;;;5067784;28;20021;-64
2022/09/22 06:52:03;;;;;;;3.08;1.40;;;21.30;52.80;;;;;;5063155;28;20107;-63
2022/09/22 06:54:29;;;;;;;2.08;1.10;;;21.40;52.80;;;;;;5063859;28;20025;-63
2022/09/22 06:56:54;;;;;;;1.92;1.13;;;21.30;52.80;;;;;;5062523;28;20087;-64
2022/09/22 06:59:20;;;;;;;1.73;0.88;;;21.30;52.80;;;;;;5057237;28;20029;-63
2022/09/22 07:01:46;;;;;;;1.35;0.82;;;21.30;52.90;;;;;;5057990;28;20125;-63
2022/09/22 07:04:12;;;;;;;1.70;0.90;;;21.40;52.90;;;;;;5050789;28;20043;-63
2022/09/22 07:06:39;;;;;;;0.95;0.80;;;21.50;52.60;;;;;;5050478;28;20084;-63
2022/09/22 07:09:05;;;;;;;1.85;0.90;;;21.60;52.60;;;;;;5050093;28;20453;-63
2022/09/22 07:11:31;;;;;;;1.05;0.80;;;21.70;52.20;;;;;;5050181;28;20483;-63
2022/09/22 07:13:57;;;;;;;1.55;0.80;;;21.80;52.10;;;;;;5050738;28;20028;-63
2022/09/22 07:16:25;;;;;;;1.60;0.90;;;21.90;52.10;;;;;;5049980;28;20512;-63
2022/09/22 07:18:55;;;;;;;1.33;0.70;;;22.00;51.90;;;;;;5050737;28;20044;-64
2022/09/22 07:21:31;;;;;;;1.00;0.80;;;22.10;51.80;;;;;;5050108;28;20511;-63
2022/09/22 07:23:57;;;;;;;1.35;0.80;;;22.20;51.60;;;;;;5048687;28;20074;-64
2022/09/22 07:26:27;;;;;;;1.88;0.90;;;22.30;51.30;;;;;;5050295;28;20087;-64
2022/09/22 07:28:54;;;;;;;1.30;0.80;;;22.40;51.10;;;;;;5050571;28;20036;-63
2022/09/22 07:31:22;;;;;;;1.45;1.00;;;22.50;51.70;;;;;;5049786;28;20082;-63
2022/09/22 07:33:47;;;;;;;1.77;0.90;;;22.50;51.10;;;;;;5049690;28;20025;-64
2022/09/22 07:36:18;;;;;;;2.17;1.20;;;22.50;51.10;;;;;;5050176;28;20028;-63
2022/09/22 07:38:48;;;;;;;2.28;1.00;;;22.40;51.00;;;;;;5048599;28;20028;-62
2022/09/22 07:41:21;;;;;;;2.17;1.17;;;22.40;51.00;;;;;;5050216;28;20082;-63
2022/09/22 07:46:43;;;;;;;1.65;0.98;;;22.40;51.10;;;;;;5050674;28;20452;-63
2022/09/22 07:49:08;;;;;;;2.05;1.00;;;22.40;51.20;;;;;;5049924;28;20039;-63
2022/09/22 07:51:34;;;;;;;1.70;1.00;;;22.40;51.20;;;;;;5049878;28;20037;-63
2022/09/22 07:54:08;;;;;;;2.88;1.20;;;22.40;51.30;;;;;;5050766;28;20087;-63
2022/09/22 07:56:40;;;;;;;1.48;0.88;;;22.40;51.20;;;;;;5041608;28;20037;-63
2022/09/22 07:59:08;;;;;;;1.88;1.10;;;22.40;51.10;;;;;;5050465;28;20029;-63
2022/09/22 08:01:36;;;;;;;2.50;1.30;;;22.40;51.10;;;;;;5050337;28;20099;-63
2022/09/22 08:04:03;;;;;;;2.58;1.00;;;22.40;51.10;;;;;;5050704;28;20491;-63
2022/09/22 08:06:30;;;;;;;2.05;1.10;;;22.40;51.10;;;;;;5050765;28;20338;-63
2022/09/22 08:08:56;;;;;;;1.48;1.00;;;22.40;51.10;;;;;;5050781;28;20028;-64
2022/09/22 08:11:25;;;;;;;2.67;1.10;;;22.40;51.10;;;;;;5050567;28;20067;-64
2022/09/22 08:13:57;;;;;;;2.05;1.02;;;22.40;51.10;;;;;;5050358;28;20029;-63
2022/09/22 08:16:27;;;;;;;2.20;1.00;;;22.40;51.10;;;;;;5049936;28;20040;-63
2022/09/22 08:18:55;;;;;;;2.47;1.13;;;22.40;51.10;;;;;;5050562;28;20029;-63
2022/09/22 08:21:25;;;;;;;2.00;1.10;;;22.40;51.10;;;;;;5050646;28;20464;-63
2022/09/22 08:23:51;;;;;;;1.38;1.00;;;22.40;51.10;;;;;;5050493;28;20503;-64
2022/09/22 08:26:21;;;;;;;1.95;1.00;;;22.40;51.10;;;;;;5050550;28;20021;-64
2022/09/22 08:28:52;;;;;;;3.17;1.20;;;22.40;51.20;;;;;;5050566;28;20508;-62
2022/09/22 08:31:20;;;;;;;2.35;1.15;;;22.40;51.20;;;;;;5049612;28;20501;-63
2022/09/22 08:33:48;;;;;;;1.97;1.07;;;22.40;51.20;;;;;;5050485;28;20481;-63
2022/09/22 08:36:14;;;;;;;1.77;1.20;;;22.40;51.20;;;;;;5055665;28;20025;-64
2022/09/22 08:38:40;;;;;;;2.03;1.10;;;22.40;51.20;;;;;;5053757;28;20358;-63
2022/09/22 08:41:06;;;;;;;2.22;1.00;;;22.40;51.20;;;;;;5050418;28;20075;-63
2022/09/22 08:43:32;;;;;;;1.63;1.00;;;22.30;51.20;;;;;;5051548;28;20021;-63
2022/09/22 08:46:02;;;;;;;1.55;0.90;;;22.30;51.40;;;;;;5051462;28;20044;-63
2022/09/22 08:54:07;;;;;;;2.55;1.30;;;22.40;51.40;;;;;;5050623;28;20433;-63
2022/09/22 08:57:21;;;;;;;2.28;1.00;;;22.40;51.40;;;;;;5032310;28;20111;-63
2022/09/22 09:00:13;;;;;;;1.70;1.00;;;22.40;51.30;;;;;;5042019;28;20587;-63
2022/09/22 09:02:58;;;;;;;1.80;0.95;;;22.40;51.40;;;;;;5049528;28;20398;-64
2022/09/22 09:06:03;;;;;;;2.45;1.13;;;22.40;51.70;;;;;;5050158;28;20075;-63
2022/09/22 09:08:44;;;;;;;1.95;1.00;;;22.40;51.60;;;;;;5049141;28;20036;-63
2022/09/22 09:11:22;;;;;;;1.63;1.00;;;22.40;51.50;;;;;;5050801;28;20036;-63
2022/09/22 09:14:33;;;;;;;2.63;1.40;;;22.40;51.40;;;;;;5053294;28;20457;-63
2022/09/22 09:17:18;;;;;;;1.83;1.00;;;22.40;51.40;;;;;;5053302;28;20044;-63
2022/09/22 09:20:00;;;;;;;1.30;0.73;;;22.40;51.40;;;;;;5053201;28;20477;-64
2022/09/22 09:22:40;;;;;;;1.77;1.00;;;22.40;51.50;;;;;;5051914;28;20530;-63
2022/09/22 09:25:22;;;;;;;1.52;1.00;;;22.40;51.50;;;;;;5053471;28;20378;-63
2022/09/22 09:27:59;;;;;;;1.35;0.80;;;22.40;51.50;;;;;;5051849;28;20025;-63
2022/09/22 09:30:25;;;;;;;2.03;1.10;;;22.40;51.50;;;;;;5053040;28;20435;-64
2022/09/22 09:32:58;;;;;;;1.55;1.05;;;22.50;51.60;;;;;;5053491;28;20472;-63
2022/09/22 09:35:45;;;;;;;1.70;1.00;;;22.40;51.50;;;;;;5052944;28;20025;-64
2022/09/22 09:38:14;;;;;;;2.25;1.10;;;22.50;51.60;;;;;;5052802;28;20408;-63
2022/09/22 09:40:40;;;;;;;1.83;1.00;;;22.40;51.60;;;;;;5053358;28;20504;-64
2022/09/22 09:43:07;;;;;;;1.50;1.00;;;22.50;51.70;;;;;;5053281;28;20384;-63
2022/09/22 09:46:01;;;;;;;2.45;1.00;;;22.50;51.70;;;;;;5052145;28;20477;-64
2022/09/22 09:48:32;;;;;;;2.00;1.05;;;22.50;51.70;;;;;;5052964;28;20098;-64
2022/09/22 09:51:04;;;;;;;1.75;1.00;;;22.50;51.70;;;;;;5052990;28;20028;-64
2022/09/22 09:53:45;;;;;;;1.80;1.00;;;22.50;51.70;;;;;;5052717;28;20067;-64
2022/09/22 09:56:27;;;;;;;2.15;1.00;;;22.50;51.70;;;;;;5034852;28;20029;-64
2022/09/22 10:01:45;;;;;;;2.83;1.00;;;22.50;51.80;;;;;;5051492;28;20032;-63
2022/09/22 10:04:17;;;;;;;1.35;0.90;;;22.50;51.80;;;;;;5052020;28;20025;-64
2022/09/22 10:06:44;;;;;;;2.38;0.90;;;22.50;51.80;;;;;;5052827;28;20052;-63
2022/09/22 10:09:10;;;;;;;1.50;0.88;;;22.50;51.80;;;;;;5052013;28;20029;-64
2022/09/22 10:11:36;;;;;;;1.92;1.10;;;22.50;51.80;;;;;;5051824;28;20048;-64
2022/09/22 10:14:02;;;;;;;1.63;0.90;;;22.50;51.80;;;;;;5052672;28;20025;-64
2022/09/22 10:16:29;;;;;;;1.98;0.90;;;22.50;51.90;;;;;;5052484;28;20132;-65
2022/09/22 10:18:57;;;;;;;3.80;1.00;;;22.60;52.00;;;;;;5052755;28;20025;-65
2022/09/22 10:21:25;;;;;;;1.50;1.00;;;22.60;51.90;;;;;;5052340;28;20032;-64
2022/09/22 10:23:56;;;;;;;1.90;0.90;;;22.60;51.90;;;;;;5051424;28;20068;-64
2022/09/22 10:26:28;;;;;;;1.55;1.00;;;22.60;51.90;;;;;;5051196;28;20029;-65
2022/09/22 10:29:16;;;;;;;1.75;1.00;;;22.60;51.80;;;;;;5051797;28;20571;-65
2022/09/22 10:32:10;;;;;;;1.58;0.90;;;22.60;51.80;;;;;;5051389;28;20033;-65
2022/09/22 10:34:46;;;;;;;1.40;0.90;;;22.60;51.80;;;;;;5052097;28;20364;-65
2022/09/22 10:37:14;;;;;;;1.38;0.90;;;22.60;51.90;;;;;;5052001;28;20040;-64
2022/09/22 10:39:42;;;;;;;2.05;1.00;;;22.60;51.90;;;;;;5052261;28;20021;-64
2022/09/22 10:42:24;;;;;;;1.80;1.10;;;22.60;51.80;;;;;;5052124;28;20025;-65
2022/09/22 10:44:51;;;;;;;2.75;0.90;;;22.60;51.80;;;;;;5050718;28;20032;-64
2022/09/22 10:47:33;;;;;;;2.33;1.17;;;22.70;51.80;;;;;;5051341;28;20029;-65
2022/09/22 10:49:58;;;;;;;2.35;1.10;;;22.70;51.80;;;;;;5050465;28;20025;-65
2022/09/22 10:52:51;;;;;;;1.98;0.95;;;22.60;51.80;;;;;;5052087;28;20598;-64
2022/09/22 10:55:29;;;;;;;2.75;1.10;;;22.70;51.80;;;;;;5050691;28;20029;-64
2022/09/22 10:58:07;;;;;;;1.60;0.97;;;22.70;51.80;;;;;;5051763;28;20028;-65
2022/09/22 11:00:34;;;;;;;1.88;1.10;;;22.60;51.90;;;;;;5051446;28;20029;-64
2022/09/22 11:03:28;;;;;;;2.25;1.10;;;22.60;51.90;;;;;;5054811;28;20101;-64
2022/09/22 11:12:23;;;;;;;2.42;1.20;;;22.70;52.00;;;;;;5052503;28;20036;-64
2022/09/22 11:15:14;;;;;;;2.42;1.10;;;22.70;52.00;;;;;;5037575;28;20385;-65
2022/09/22 11:18:17;;;;;;;2.65;1.08;;;22.70;52.00;;;;;;5050640;28;20024;-64
2022/09/22 11:20:50;;;;;;;1.67;0.90;;;22.70;52.00;;;;;;5051096;28;20021;-65
2022/09/22 11:23:44;;;;;;;2.13;1.00;;;22.70;52.00;;;;;;5050873;28;20016;-64
2022/09/22 11:26:30;;;;;;;2.70;0.85;;;22.70;52.00;;;;;;5051009;28;20028;-64
2022/09/22 11:28:59;;;;;;;3.97;1.10;;;22.70;52.10;;;;;;5051642;28;20473;-64
2022/09/22 11:31:45;;;;;;;1.35;0.90;;;22.80;52.20;;;;;;5050269;28;20099;-65
2022/09/22 11:34:23;;;;;;;1.95;1.00;;;22.80;52.20;;;;;;5050756;28;20107;-65
2022/09/22 11:36:56;;;;;;;2.65;1.10;;;22.80;52.20;;;;;;5051008;28;20033;-65
2022/09/22 11:39:47;;;;;;;2.97;1.08;;;22.80;52.20;;;;;;5051058;28;20473;-65
2022/09/22 11:42:19;;;;;;;1.60;0.90;;;22.80;52.20;;;;;;5049928;28;20044;-65
2022/09/22 11:45:26;;;;;;;2.10;1.00;;;22.80;52.20;;;;;;5050920;28;20064;-64
2022/09/22 11:48:01;;;;;;;2.55;0.88;;;22.90;52.30;;;;;;5007074;28;20369;-64
2022/09/22 11:50:45;;;;;;;2.10;1.00;;;22.90;52.30;;;;;;5050556;28;20021;-65
2022/09/22 11:53:49;;;;;;;1.90;1.05;;;22.90;52.30;;;;;;5050970;28;20052;-65
2022/09/22 11:56:40;;;;;;;1.95;1.05;;;22.90;52.30;;;;;;4961008;28;20530;-64
2022/09/22 11:59:27;;;;;;;2.30;1.10;;;22.90;52.30;;;;;;5049812;28;20116;-65
2022/09/22 12:01:56;;;;;;;2.47;1.13;;;22.90;52.30;;;;;;5049615;28;20094;-65
2022/09/22 12:04:36;;;;;;;3.58;0.90;;;23.00;52.40;;;;;;5050450;28;20040;-65
2022/09/22 12:07:09;;;;;;;2.10;0.90;;;23.00;52.30;;;;;;5049513;28;20029;-65
2022/09/22 12:09:47;;;;;;;1.63;0.85;;;23.00;52.30;;;;;;5032947;28;20179;-65
2022/09/22 12:12:17;;;;;;;1.92;0.90;;;23.00;52.40;;;;;;5050129;28;20384;-65
2022/09/22 12:14:47;;;;;;;1.55;0.90;;;23.00;52.30;;;;;;5049767;28;20032;-65
2022/09/22 12:17:57;;;;;;;3.10;1.00;;;23.10;52.30;;;;;;5050135;28;20962;-65
2022/09/22 12:20:32;;;;;;;4.13;1.00;;;23.10;52.40;;;;;;5012166;28;20068;-65
2022/09/22 12:23:16;;;;;;;1.65;0.90;;;23.10;52.30;;;;;;5050545;28;20017;-65
2022/09/22 12:25:43;;;;;;;2.15;0.93;;;23.10;52.90;;;;;;5050652;28;20381;-65
2022/09/22 12:28:28;;;;;;;2.30;1.10;;;23.10;52.40;;;;;;5050274;28;20035;-65
2022/09/22 12:31:11;;;;;;;1.75;0.90;;;23.10;52.30;;;;;;5049671;28;20036;-66
2022/09/22 12:33:44;;;;;;;2.30;1.20;;;23.10;52.30;;;;;;5050057;28;20416;-65
2022/09/22 12:36:10;;;;;;;2.05;1.10;;;23.20;52.20;;;;;;5048620;28;20053;-65
2022/09/22 12:38:37;;;;;;;2.10;1.02;;;23.20;52.20;;;;;;5050514;28;20090;-65
2022/09/22 12:41:04;;;;;;;1.88;1.10;;;23.20;52.20;;;;;;5050602;28;20029;-65
2022/09/22 12:43:32;;;;;;;2.05;1.00;;;23.20;52.20;;;;;;5050569;28;20013;-65
2022/09/22 12:46:01;;;;;;;1.50;0.90;;;23.20;52.20;;;;;;5051262;28;20427;-66
2022/09/22 12:48:31;;;;;;;2.53;1.08;;;23.20;52.20;;;;;;5054394;28;20036;-65
2022/09/22 12:51:36;;;;;;;4.57;1.20;;;23.20;52.20;;;;;;5054318;28;20095;-65
2022/09/22 12:54:20;;;;;;;2.78;1.30;;;23.20;52.20;;;;;;5053477;28;20488;-65
2022/09/22 12:56:55;;;;;;;2.03;0.90;;;23.20;52.20;;;;;;5054195;28;20024;-65
2022/09/22 12:59:36;;;;;;;1.92;1.00;;;23.20;52.20;;;;;;5053611;28;20017;-66
2022/09/22 13:02:12;;;;;;;2.67;1.27;;;23.30;52.30;;;;;;5053759;28;20524;-65
2022/09/22 13:04:38;;;;;;;2.95;1.00;;;23.30;52.30;;;;;;5053044;28;20079;-65
2022/09/22 13:07:32;;;;;;;3.45;1.17;;;23.30;52.40;;;;;;5054007;28;20481;-65
2022/09/22 13:10:33;;;;;;;1.92;0.88;;;23.30;52.30;;;;;;5053419;28;20126;-65
2022/09/22 13:13:04;;;;;;;2.17;1.20;;;23.30;52.30;;;;;;4953462;29;20035;-65
2022/09/22 13:15:48;;;;;;;2.53;1.10;;;23.30;52.30;;;;;;5036500;28;20056;-65
2022/09/22 13:18:50;;;;;;;2.17;1.00;;;23.30;52.30;;;;;;5053909;28;20025;-65
2022/09/22 13:21:17;;;;;;;2.75;1.10;;;23.40;52.30;;;;;;5040489;28;20121;-65
2022/09/22 13:23:58;;;;;;;3.40;1.10;;;23.40;52.30;;;;;;5053724;28;20492;-65
2022/09/22 13:26:35;;;;;;;1.42;0.93;;;23.40;52.20;;;;;;5052842;28;20487;-64
2022/09/22 13:29:19;;;;;;;1.98;0.90;;;23.40;52.20;;;;;;5053256;28;20025;-64
2022/09/22 13:31:56;;;;;;;2.03;0.95;;;23.40;52.20;;;;;;5052331;28;20033;-64